sensor_id;sensor_type;location;lat;lon;timestamp;temperature;humidity
20498;DHT22;10407;53.238;10.448;2023-04-25T00:01:03;10.50;99.90
20498;DHT22;10407;53.238;10.448;2023-04-25T00:03:35;10.60;99.90
20498;DHT22;10407;53.238;10.448;2023-04-25T00:06:04;10.80;99.90
20498;DHT22;10407;53.238;10.448;2023-04-25T00:08:33;10.50;99.90
20498;DHT22;10407;53.238;10.448;2023-04-25T00:11:00;10.40;99.90
20498;DHT22;10407;53.238;10.448;2023-04-25T00:13:28;10.40;99.90
20498;DHT22;10407;53.238;10.448;2023-04-25T00:15:55;10.40;99.90
20498;DHT22;10407;53.238;10.448;2023-04-25T00:18:24;10.50;99.90
20498;DHT22;10407;53.238;10.448;2023-04-25T00:20:54;10.60;99.90
20498;DHT22;10407;53.238;10.448;2023-04-25T00:23:21;10.50;99.90
20498;DHT22;10407;53.238;10.448;2023-04-25T00:25:50;10.60;99.90
20498;DHT22;10407;53.238;10.448;2023-04-25T00:28:18;10.60;99.90
20498;DHT22;10407;53.238;10.448;2023-04-25T00:30:45;10.50;99.90
20498;DHT22;10407;53.238;10.448;2023-04-25T00:33:13;10.30;99.90
20498;DHT22;10407;53.238;10.448;2023-04-25T00:35:41;10.50;99.90
20498;DHT22;10407;53.238;10.448;2023-04-25T00:38:09;10.60;99.90
20498;DHT22;10407;53.238;10.448;2023-04-25T00:40:36;10.50;99.90
20498;DHT22;10407;53.238;10.448;2023-04-25T00:43:04;10.60;99.90
20498;DHT22;10407;53.238;10.448;2023-04-25T00:45:31;10.40;99.90
20498;DHT22;10407;53.238;10.448;2023-04-25T00:48:00;10.50;99.90
20498;DHT22;10407;53.238;10.448;2023-04-25T00:50:28;10.40;99.90
20498;DHT22;10407;53.238;10.448;2023-04-25T00:52:56;10.50;99.90
20498;DHT22;10407;53.238;10.448;2023-04-25T00:55:23;10.60;99.90
20498;DHT22;10407;53.238;10.448;2023-04-25T00:57:51;10.50;99.90
20498;DHT22;10407;53.238;10.448;2023-04-25T01:00:19;10.50;99.90
20498;DHT22;10407;53.238;10.448;2023-04-25T01:02:46;10.40;99.90
20498;DHT22;10407;53.238;10.448;2023-04-25T01:05:14;10.50;99.90
20498;DHT22;10407;53.238;10.448;2023-04-25T01:07:42;10.50;99.90
20498;DHT22;10407;53.238;10.448;2023-04-25T01:10:09;10.40;99.90
20498;DHT22;10407;53.238;10.448;2023-04-25T01:12:37;10.40;99.90
20498;DHT22;10407;53.238;10.448;2023-04-25T01:15:06;10.30;99.90
20498;DHT22;10407;53.238;10.448;2023-04-25T01:17:34;10.40;99.90
20498;DHT22;10407;53.238;10.448;2023-04-25T01:20:04;10.50;99.90
20498;DHT22;10407;53.238;10.448;2023-04-25T01:22:32;10.50;99.90
20498;DHT22;10407;53.238;10.448;2023-04-25T01:25:00;10.50;99.90
20498;DHT22;10407;53.238;10.448;2023-04-25T01:27:28;10.60;99.90
20498;DHT22;10407;53.238;10.448;2023-04-25T01:29:56;10.50;99.90
20498;DHT22;10407;53.238;10.448;2023-04-25T01:32:24;10.50;99.90
20498;DHT22;10407;53.238;10.448;2023-04-25T01:34:51;10.40;99.90
20498;DHT22;10407;53.238;10.448;2023-04-25T01:37:19;10.40;99.90
20498;DHT22;10407;53.238;10.448;2023-04-25T01:39:47;10.50;99.90
20498;DHT22;10407;53.238;10.448;2023-04-25T01:42:16;10.30;99.90
20498;DHT22;10407;53.238;10.448;2023-04-25T01:44:44;10.40;99.90
20498;DHT22;10407;53.238;10.448;2023-04-25T01:47:11;10.40;99.90
20498;DHT22;10407;53.238;10.448;2023-04-25T01:49:39;10.30;99.90
20498;DHT22;10407;53.238;10.448;2023-04-25T01:52:06;10.30;99.90
20498;DHT22;10407;53.238;10.448;2023-04-25T01:54:34;10.40;99.90
20498;DHT22;10407;53.238;10.448;2023-04-25T01:57:02;10.40;99.90
20498;DHT22;10407;53.238;10.448;2023-04-25T01:59:29;10.40;99.90
20498;DHT22;10407;53.238;10.448;2023-04-25T02:01:57;10.40;99.90
20498;DHT22;10407;53.238;10.448;2023-04-25T02:04:24;10.20;99.90
20498;DHT22;10407;53.238;10.448;2023-04-25T02:06:52;10.20;99.90
20498;DHT22;10407;53.238;10.448;2023-04-25T02:09:19;10.30;99.90
20498;DHT22;10407;53.238;10.448;2023-04-25T02:11:47;10.30;99.90
20498;DHT22;10407;53.238;10.448;2023-04-25T02:14:14;10.20;99.90
20498;DHT22;10407;53.238;10.448;2023-04-25T02:16:42;10.20;99.90
20498;DHT22;10407;53.238;10.448;2023-04-25T02:19:10;10.30;99.90
20498;DHT22;10407;53.238;10.448;2023-04-25T02:21:38;10.40;99.90
20498;DHT22;10407;53.238;10.448;2023-04-25T02:24:07;10.20;99.90
20498;DHT22;10407;53.238;10.448;2023-04-25T02:26:35;10.20;99.90
20498;DHT22;10407;53.238;10.448;2023-04-25T02:29:03;10.20;99.90
20498;DHT22;10407;53.238;10.448;2023-04-25T02:31:30;10.20;99.90
20498;DHT22;10407;53.238;10.448;2023-04-25T02:33:58;10.10;99.90
20498;DHT22;10407;53.238;10.448;2023-04-25T02:36:25;10.20;99.90
20498;DHT22;10407;53.238;10.448;2023-04-25T02:38:53;10.10;99.90
20498;DHT22;10407;53.238;10.448;2023-04-25T02:41:21;10.10;99.90
20498;DHT22;10407;53.238;10.448;2023-04-25T02:43:48;10.20;99.90
20498;DHT22;10407;53.238;10.448;2023-04-25T02:46:16;10.10;99.90
20498;DHT22;10407;53.238;10.448;2023-04-25T02:48:43;10.10;99.90
20498;DHT22;10407;53.238;10.448;2023-04-25T02:51:11;10.10;99.90
20498;DHT22;10407;53.238;10.448;2023-04-25T02:53:39;10.10;99.90
20498;DHT22;10407;53.238;10.448;2023-04-25T02:56:06;10.10;99.90
20498;DHT22;10407;53.238;10.448;2023-04-25T02:58:34;10.10;99.90
20498;DHT22;10407;53.238;10.448;2023-04-25T03:01:01;9.90;99.90
20498;DHT22;10407;53.238;10.448;2023-04-25T03:03:29;9.80;99.90
20498;DHT22;10407;53.238;10.448;2023-04-25T03:05:56;10.00;99.90
20498;DHT22;10407;53.238;10.448;2023-04-25T03:08:24;10.00;99.90
20498;DHT22;10407;53.238;10.448;2023-04-25T03:10:53;10.00;99.90
20498;DHT22;10407;53.238;10.448;2023-04-25T03:13:22;10.00;99.90
20498;DHT22;10407;53.238;10.448;2023-04-25T03:15:49;9.90;99.90
20498;DHT22;10407;53.238;10.448;2023-04-25T03:18:17;9.90;99.90
20498;DHT22;10407;53.238;10.448;2023-04-25T03:20:44;9.70;99.90
20498;DHT22;10407;53.238;10.448;2023-04-25T03:23:13;9.50;99.90
20498;DHT22;10407;53.238;10.448;2023-04-25T03:25:40;9.60;99.90
20498;DHT22;10407;53.238;10.448;2023-04-25T03:28:08;9.70;99.90
20498;DHT22;10407;53.238;10.448;2023-04-25T03:30:35;9.80;99.90
20498;DHT22;10407;53.238;10.448;2023-04-25T03:33:03;9.80;99.90
20498;DHT22;10407;53.238;10.448;2023-04-25T03:35:30;9.80;99.90
20498;DHT22;10407;53.238;10.448;2023-04-25T03:37:58;9.60;99.90
20498;DHT22;10407;53.238;10.448;2023-04-25T03:40:25;9.70;99.90
20498;DHT22;10407;53.238;10.448;2023-04-25T03:42:53;9.70;99.90
20498;DHT22;10407;53.238;10.448;2023-04-25T03:45:20;9.70;99.90
20498;DHT22;10407;53.238;10.448;2023-04-25T03:47:48;9.60;99.90
20498;DHT22;10407;53.238;10.448;2023-04-25T03:50:16;9.50;99.90
20498;DHT22;10407;53.238;10.448;2023-04-25T03:52:43;9.60;99.90
20498;DHT22;10407;53.238;10.448;2023-04-25T03:55:11;9.60;99.90
20498;DHT22;10407;53.238;10.448;2023-04-25T03:57:38;9.60;99.90
20498;DHT22;10407;53.238;10.448;2023-04-25T04:00:07;9.60;99.90
20498;DHT22;10407;53.238;10.448;2023-04-25T04:02:34;9.60;99.90
20498;DHT22;10407;53.238;10.448;2023-04-25T04:05:04;9.70;99.90
20498;DHT22;10407;53.238;10.448;2023-04-25T04:07:32;9.60;99.90
20498;DHT22;10407;53.238;10.448;2023-04-25T04:10:02;9.60;99.90
20498;DHT22;10407;53.238;10.448;2023-04-25T04:12:30;9.60;99.90
20498;DHT22;10407;53.238;10.448;2023-04-25T04:14:57;9.50;99.90
20498;DHT22;10407;53.238;10.448;2023-04-25T04:17:25;9.50;99.90
20498;DHT22;10407;53.238;10.448;2023-04-25T04:19:52;9.60;99.90
20498;DHT22;10407;53.238;10.448;2023-04-25T04:22:20;9.60;99.90
20498;DHT22;10407;53.238;10.448;2023-04-25T04:24:47;9.60;99.90
20498;DHT22;10407;53.238;10.448;2023-04-25T04:27:18;9.60;99.90
20498;DHT22;10407;53.238;10.448;2023-04-25T04:29:46;9.70;99.90
20498;DHT22;10407;53.238;10.448;2023-04-25T04:32:14;9.70;99.90
20498;DHT22;10407;53.238;10.448;2023-04-25T04:34:42;9.70;99.90
20498;DHT22;10407;53.238;10.448;2023-04-25T04:37:11;10.20;99.90
20498;DHT22;10407;53.238;10.448;2023-04-25T04:39:39;10.60;99.90
20498;DHT22;10407;53.238;10.448;2023-04-25T04:42:07;11.30;99.70
20498;DHT22;10407;53.238;10.448;2023-04-25T04:44:35;11.80;96.10
20498;DHT22;10407;53.238;10.448;2023-04-25T04:47:03;12.00;94.60
20498;DHT22;10407;53.238;10.448;2023-04-25T04:49:32;12.60;92.00
20498;DHT22;10407;53.238;10.448;2023-04-25T04:52:00;12.90;90.30
20498;DHT22;10407;53.238;10.448;2023-04-25T04:54:28;13.50;82.30
20498;DHT22;10407;53.238;10.448;2023-04-25T04:56:55;13.80;79.10
20498;DHT22;10407;53.238;10.448;2023-04-25T04:59:22;14.30;73.40
20498;DHT22;10407;53.238;10.448;2023-04-25T05:01:50;15.00;66.00
20498;DHT22;10407;53.238;10.448;2023-04-25T05:04:18;15.20;59.40
20498;DHT22;10407;53.238;10.448;2023-04-25T05:06:45;15.60;56.30
20498;DHT22;10407;53.238;10.448;2023-04-25T05:09:12;16.00;52.80
20498;DHT22;10407;53.238;10.448;2023-04-25T05:11:41;16.40;48.30
20498;DHT22;10407;53.238;10.448;2023-04-25T05:14:09;17.00;44.90
20498;DHT22;10407;53.238;10.448;2023-04-25T05:16:36;17.20;40.20
20498;DHT22;10407;53.238;10.448;2023-04-25T05:19:04;17.20;38.20
20498;DHT22;10407;53.238;10.448;2023-04-25T05:21:31;17.80;35.10
20498;DHT22;10407;53.238;10.448;2023-04-25T05:23:59;18.10;30.30
20498;DHT22;10407;53.238;10.448;2023-04-25T05:26:26;18.20;28.30
20498;DHT22;10407;53.238;10.448;2023-04-25T05:28:56;18.70;26.90
20498;DHT22;10407;53.238;10.448;2023-04-25T05:31:24;18.20;26.10
20498;DHT22;10407;53.238;10.448;2023-04-25T05:33:52;16.40;28.40
20498;DHT22;10407;53.238;10.448;2023-04-25T05:36:19;14.40;38.00
20498;DHT22;10407;53.238;10.448;2023-04-25T05:38:47;14.70;40.50
20498;DHT22;10407;53.238;10.448;2023-04-25T05:41:15;15.60;39.50
20498;DHT22;10407;53.238;10.448;2023-04-25T05:43:42;17.50;31.30
20498;DHT22;10407;53.238;10.448;2023-04-25T05:46:12;18.40;24.10
20498;DHT22;10407;53.238;10.448;2023-04-25T05:48:40;18.90;26.30
20498;DHT22;10407;53.238;10.448;2023-04-25T05:51:07;19.90;21.30
20498;DHT22;10407;53.238;10.448;2023-04-25T05:53:35;17.00;25.00
20498;DHT22;10407;53.238;10.448;2023-04-25T05:56:02;14.30;33.50
20498;DHT22;10407;53.238;10.448;2023-04-25T05:58:30;13.60;42.70
20498;DHT22;10407;53.238;10.448;2023-04-25T06:00:57;13.30;47.20
20498;DHT22;10407;53.238;10.448;2023-04-25T06:03:25;12.90;51.80
20498;DHT22;10407;53.238;10.448;2023-04-25T06:05:53;12.70;55.70
20498;DHT22;10407;53.238;10.448;2023-04-25T06:08:20;12.80;57.90
20498;DHT22;10407;53.238;10.448;2023-04-25T06:10:48;12.60;58.20
20498;DHT22;10407;53.238;10.448;2023-04-25T06:13:16;12.20;63.30
20498;DHT22;10407;53.238;10.448;2023-04-25T06:15:44;12.20;64.10
20498;DHT22;10407;53.238;10.448;2023-04-25T06:18:11;12.00;67.60
20498;DHT22;10407;53.238;10.448;2023-04-25T06:20:39;11.60;70.70
20498;DHT22;10407;53.238;10.448;2023-04-25T06:23:06;11.60;72.70
20498;DHT22;10407;53.238;10.448;2023-04-25T06:25:34;11.50;73.80
20498;DHT22;10407;53.238;10.448;2023-04-25T06:28:02;11.40;77.20
20498;DHT22;10407;53.238;10.448;2023-04-25T06:30:29;11.20;79.10
20498;DHT22;10407;53.238;10.448;2023-04-25T06:32:57;11.40;79.90
20498;DHT22;10407;53.238;10.448;2023-04-25T06:35:24;11.50;80.40
20498;DHT22;10407;53.238;10.448;2023-04-25T06:37:52;11.50;80.50
20498;DHT22;10407;53.238;10.448;2023-04-25T06:40:20;11.60;80.50
20498;DHT22;10407;53.238;10.448;2023-04-25T06:42:47;11.70;79.30
20498;DHT22;10407;53.238;10.448;2023-04-25T06:45:15;11.80;79.50
20498;DHT22;10407;53.238;10.448;2023-04-25T06:47:42;11.90;79.70
20498;DHT22;10407;53.238;10.448;2023-04-25T06:50:10;11.90;78.50
20498;DHT22;10407;53.238;10.448;2023-04-25T06:52:37;12.00;78.50
20498;DHT22;10407;53.238;10.448;2023-04-25T06:55:05;11.80;78.20
20498;DHT22;10407;53.238;10.448;2023-04-25T06:57:33;11.90;79.00
20498;DHT22;10407;53.238;10.448;2023-04-25T07:00:00;11.90;78.10
20498;DHT22;10407;53.238;10.448;2023-04-25T07:02:30;12.10;79.80
20498;DHT22;10407;53.238;10.448;2023-04-25T07:04:57;12.10;78.20
20498;DHT22;10407;53.238;10.448;2023-04-25T07:07:26;11.90;75.80
20498;DHT22;10407;53.238;10.448;2023-04-25T07:09:54;12.00;80.60
20498;DHT22;10407;53.238;10.448;2023-04-25T07:12:21;12.00;78.30
20498;DHT22;10407;53.238;10.448;2023-04-25T07:14:49;11.90;78.40
20498;DHT22;10407;53.238;10.448;2023-04-25T07:17:17;11.30;84.70
20498;DHT22;10407;53.238;10.448;2023-04-25T07:19:44;11.60;84.90
20498;DHT22;10407;53.238;10.448;2023-04-25T07:22:12;11.30;84.70
20498;DHT22;10407;53.238;10.448;2023-04-25T07:24:39;11.50;83.80
20498;DHT22;10407;53.238;10.448;2023-04-25T07:27:07;11.40;84.90
20498;DHT22;10407;53.238;10.448;2023-04-25T07:29:34;11.40;85.30
20498;DHT22;10407;53.238;10.448;2023-04-25T07:32:04;11.30;86.60
20498;DHT22;10407;53.238;10.448;2023-04-25T07:34:31;11.20;89.70
20498;DHT22;10407;53.238;10.448;2023-04-25T07:36:59;11.50;89.40
20498;DHT22;10407;53.238;10.448;2023-04-25T07:39:26;11.50;89.00
20498;DHT22;10407;53.238;10.448;2023-04-25T07:41:54;11.50;87.00
20498;DHT22;10407;53.238;10.448;2023-04-25T07:44:22;11.70;86.00
20498;DHT22;10407;53.238;10.448;2023-04-25T07:46:50;11.60;85.00
20498;DHT22;10407;53.238;10.448;2023-04-25T07:49:17;11.90;84.00
20498;DHT22;10407;53.238;10.448;2023-04-25T07:51:45;12.50;83.20
20498;DHT22;10407;53.238;10.448;2023-04-25T07:54:15;12.70;76.60
20498;DHT22;10407;53.238;10.448;2023-04-25T07:56:42;12.80;74.90
20498;DHT22;10407;53.238;10.448;2023-04-25T07:59:10;12.90;75.50
20498;DHT22;10407;53.238;10.448;2023-04-25T08:01:37;12.80;73.50
20498;DHT22;10407;53.238;10.448;2023-04-25T08:04:05;12.60;74.20
20498;DHT22;10407;53.238;10.448;2023-04-25T08:06:32;12.50;73.90
20498;DHT22;10407;53.238;10.448;2023-04-25T08:09:00;12.50;76.40
20498;DHT22;10407;53.238;10.448;2023-04-25T08:11:28;12.50;75.00
20498;DHT22;10407;53.238;10.448;2023-04-25T08:13:55;12.30;67.20
20498;DHT22;10407;53.238;10.448;2023-04-25T08:16:23;12.50;70.70
20498;DHT22;10407;53.238;10.448;2023-04-25T08:18:50;12.50;71.70
20498;DHT22;10407;53.238;10.448;2023-04-25T08:21:18;12.90;70.70
20498;DHT22;10407;53.238;10.448;2023-04-25T08:23:45;13.20;70.10
20498;DHT22;10407;53.238;10.448;2023-04-25T08:26:13;13.20;64.60
20498;DHT22;10407;53.238;10.448;2023-04-25T08:28:41;12.70;69.00
20498;DHT22;10407;53.238;10.448;2023-04-25T08:31:08;12.80;69.50
20498;DHT22;10407;53.238;10.448;2023-04-25T08:33:36;12.60;72.40
20498;DHT22;10407;53.238;10.448;2023-04-25T08:36:04;12.90;71.80
20498;DHT22;10407;53.238;10.448;2023-04-25T08:38:32;13.30;72.30
20498;DHT22;10407;53.238;10.448;2023-04-25T08:41:00;13.40;70.50
20498;DHT22;10407;53.238;10.448;2023-04-25T08:43:29;13.10;68.90
20498;DHT22;10407;53.238;10.448;2023-04-25T08:46:00;13.30;70.60
20498;DHT22;10407;53.238;10.448;2023-04-25T08:48:28;13.80;69.10
20498;DHT22;10407;53.238;10.448;2023-04-25T08:50:58;13.90;64.40
20498;DHT22;10407;53.238;10.448;2023-04-25T08:53:28;13.80;60.90
20498;DHT22;10407;53.238;10.448;2023-04-25T08:55:58;13.80;59.30
20498;DHT22;10407;53.238;10.448;2023-04-25T08:58:26;13.80;57.80
20498;DHT22;10407;53.238;10.448;2023-04-25T09:00:54;13.90;56.10
20498;DHT22;10407;53.238;10.448;2023-04-25T09:03:22;13.80;56.00
20498;DHT22;10407;53.238;10.448;2023-04-25T09:05:50;13.70;55.90
20498;DHT22;10407;53.238;10.448;2023-04-25T09:08:19;13.70;54.60
20498;DHT22;10407;53.238;10.448;2023-04-25T09:10:46;13.90;56.00
20498;DHT22;10407;53.238;10.448;2023-04-25T09:13:20;14.30;51.50
20498;DHT22;10407;53.238;10.448;2023-04-25T09:15:55;14.00;53.00
20498;DHT22;10407;53.238;10.448;2023-04-25T09:18:31;13.80;52.00
20498;DHT22;10407;53.238;10.448;2023-04-25T09:21:07;13.70;52.60
20498;DHT22;10407;53.238;10.448;2023-04-25T09:23:46;13.70;51.40
20498;DHT22;10407;53.238;10.448;2023-04-25T09:26:20;13.60;51.60
20498;DHT22;10407;53.238;10.448;2023-04-25T09:28:48;13.10;53.10
20498;DHT22;10407;53.238;10.448;2023-04-25T09:31:23;13.20;54.00
20498;DHT22;10407;53.238;10.448;2023-04-25T09:33:59;13.10;53.80
20498;DHT22;10407;53.238;10.448;2023-04-25T09:36:27;12.90;55.00
20498;DHT22;10407;53.238;10.448;2023-04-25T09:38:55;12.90;53.70
20498;DHT22;10407;53.238;10.448;2023-04-25T09:41:26;12.90;54.70
20498;DHT22;10407;53.238;10.448;2023-04-25T09:43:57;12.20;56.10
20498;DHT22;10407;53.238;10.448;2023-04-25T09:46:33;12.00;58.60
20498;DHT22;10407;53.238;10.448;2023-04-25T09:49:07;12.20;58.60
20498;DHT22;10407;53.238;10.448;2023-04-25T09:51:34;12.60;55.80
20498;DHT22;10407;53.238;10.448;2023-04-25T09:54:02;12.80;56.40
20498;DHT22;10407;53.238;10.448;2023-04-25T09:56:31;13.00;54.90
20498;DHT22;10407;53.238;10.448;2023-04-25T09:59:00;13.00;57.40
20498;DHT22;10407;53.238;10.448;2023-04-25T10:01:29;12.70;56.30
20498;DHT22;10407;53.238;10.448;2023-04-25T10:03:58;12.50;58.00
20498;DHT22;10407;53.238;10.448;2023-04-25T10:06:27;12.40;59.00
20498;DHT22;10407;53.238;10.448;2023-04-25T10:08:56;11.90;61.90
20498;DHT22;10407;53.238;10.448;2023-04-25T10:11:25;12.00;66.00
20498;DHT22;10407;53.238;10.448;2023-04-25T10:13:53;12.10;69.40
20498;DHT22;10407;53.238;10.448;2023-04-25T10:16:21;11.50;72.60
20498;DHT22;10407;53.238;10.448;2023-04-25T10:18:50;11.70;73.70
20498;DHT22;10407;53.238;10.448;2023-04-25T10:21:18;11.40;82.30
20498;DHT22;10407;53.238;10.448;2023-04-25T10:23:47;11.50;90.50
20498;DHT22;10407;53.238;10.448;2023-04-25T10:26:16;11.70;88.10
20498;DHT22;10407;53.238;10.448;2023-04-25T10:29:03;12.10;86.00
20498;DHT22;10407;53.238;10.448;2023-04-25T10:31:31;12.80;82.30
20498;DHT22;10407;53.238;10.448;2023-04-25T10:34:00;13.50;75.00
20498;DHT22;10407;53.238;10.448;2023-04-25T10:36:32;13.90;72.10
20498;DHT22;10407;53.238;10.448;2023-04-25T10:39:04;14.00;70.40
20498;DHT22;10407;53.238;10.448;2023-04-25T10:41:52;13.50;67.50
20498;DHT22;10407;53.238;10.448;2023-04-25T10:44:17;12.80;69.20
20498;DHT22;10407;53.238;10.448;2023-04-25T10:46:45;12.80;72.70
20498;DHT22;10407;53.238;10.448;2023-04-25T10:49:30;12.90;73.00
20498;DHT22;10407;53.238;10.448;2023-04-25T10:52:19;12.70;70.00
20498;DHT22;10407;53.238;10.448;2023-04-25T10:54:48;13.50;71.40
20498;DHT22;10407;53.238;10.448;2023-04-25T10:57:30;13.80;65.40
20498;DHT22;10407;53.238;10.448;2023-04-25T11:00:09;14.00;65.40
20498;DHT22;10407;53.238;10.448;2023-04-25T11:02:43;14.70;63.20
20498;DHT22;10407;53.238;10.448;2023-04-25T11:05:22;14.80;56.90
20498;DHT22;10407;53.238;10.448;2023-04-25T11:07:50;14.20;57.70
20498;DHT22;10407;53.238;10.448;2023-04-25T11:10:18;14.60;56.60
20498;DHT22;10407;53.238;10.448;2023-04-25T11:12:46;15.10;54.70
20498;DHT22;10407;53.238;10.448;2023-04-25T11:15:14;14.70;46.50
20498;DHT22;10407;53.238;10.448;2023-04-25T11:17:41;14.80;50.40
20498;DHT22;10407;53.238;10.448;2023-04-25T11:20:11;15.20;49.00
20498;DHT22;10407;53.238;10.448;2023-04-25T11:22:41;15.40;48.10
20498;DHT22;10407;53.238;10.448;2023-04-25T11:25:10;14.60;45.30
20498;DHT22;10407;53.238;10.448;2023-04-25T11:27:59;14.70;45.70
20498;DHT22;10407;53.238;10.448;2023-04-25T11:30:16;14.80;46.10
20498;DHT22;10407;53.238;10.448;2023-04-25T11:32:44;14.50;46.70
20498;DHT22;10407;53.238;10.448;2023-04-25T11:35:12;13.90;49.30
20498;DHT22;10407;53.238;10.448;2023-04-25T11:37:41;13.60;50.60
20498;DHT22;10407;53.238;10.448;2023-04-25T11:40:09;13.40;53.10
20498;DHT22;10407;53.238;10.448;2023-04-25T11:42:39;13.00;51.20
20498;DHT22;10407;53.238;10.448;2023-04-25T11:45:07;12.60;58.30
20498;DHT22;10407;53.238;10.448;2023-04-25T11:47:34;11.80;81.80
20498;DHT22;10407;53.238;10.448;2023-04-25T11:50:04;11.50;91.70
20498;DHT22;10407;53.238;10.448;2023-04-25T11:52:46;11.90;95.30
20498;DHT22;10407;53.238;10.448;2023-04-25T11:55:10;12.30;95.20
20498;DHT22;10407;53.238;10.448;2023-04-25T11:57:40;12.90;93.40
20498;DHT22;10407;53.238;10.448;2023-04-25T12:00:16;13.10;90.40
20498;DHT22;10407;53.238;10.448;2023-04-25T12:02:52;13.00;88.30
20498;DHT22;10407;53.238;10.448;2023-04-25T12:05:23;12.90;85.50
20498;DHT22;10407;53.238;10.448;2023-04-25T12:07:49;13.00;82.30
20498;DHT22;10407;53.238;10.448;2023-04-25T12:10:18;13.00;80.50
20498;DHT22;10407;53.238;10.448;2023-04-25T12:12:48;13.30;80.00
20498;DHT22;10407;53.238;10.448;2023-04-25T12:15:18;13.20;74.40
20498;DHT22;10407;53.238;10.448;2023-04-25T12:17:48;13.30;71.30
20498;DHT22;10407;53.238;10.448;2023-04-25T12:20:20;13.20;68.50
20498;DHT22;10407;53.238;10.448;2023-04-25T12:22:50;13.10;67.80
20498;DHT22;10407;53.238;10.448;2023-04-25T12:25:37;13.20;66.50
20498;DHT22;10407;53.238;10.448;2023-04-25T12:28:23;13.30;67.60
20498;DHT22;10407;53.238;10.448;2023-04-25T12:31:00;13.90;65.40
20498;DHT22;10407;53.238;10.448;2023-04-25T12:33:30;14.00;59.40
20498;DHT22;10407;53.238;10.448;2023-04-25T12:35:58;14.20;63.40
20498;DHT22;10407;53.238;10.448;2023-04-25T12:38:29;14.10;58.20
20498;DHT22;10407;53.238;10.448;2023-04-25T12:40:58;13.60;54.40
20498;DHT22;10407;53.238;10.448;2023-04-25T12:43:26;14.00;56.80
20498;DHT22;10407;53.238;10.448;2023-04-25T12:45:54;14.00;55.70
20498;DHT22;10407;53.238;10.448;2023-04-25T12:48:23;13.60;55.70
20498;DHT22;10407;53.238;10.448;2023-04-25T12:50:51;13.70;52.20
20498;DHT22;10407;53.238;10.448;2023-04-25T12:53:20;13.60;52.40
20498;DHT22;10407;53.238;10.448;2023-04-25T12:55:49;13.40;54.40
20498;DHT22;10407;53.238;10.448;2023-04-25T12:58:18;13.10;54.50
20498;DHT22;10407;53.238;10.448;2023-04-25T13:00:46;12.90;53.80
20498;DHT22;10407;53.238;10.448;2023-04-25T13:03:14;12.50;51.90
20498;DHT22;10407;53.238;10.448;2023-04-25T13:05:42;12.50;53.30
20498;DHT22;10407;53.238;10.448;2023-04-25T13:08:10;12.40;58.30
20498;DHT22;10407;53.238;10.448;2023-04-25T13:10:37;12.60;60.40
20498;DHT22;10407;53.238;10.448;2023-04-25T13:13:05;13.10;59.70
20498;DHT22;10407;53.238;10.448;2023-04-25T13:15:33;13.90;57.70
20498;DHT22;10407;53.238;10.448;2023-04-25T13:18:00;14.00;55.60
20498;DHT22;10407;53.238;10.448;2023-04-25T13:20:28;13.60;52.00
20498;DHT22;10407;53.238;10.448;2023-04-25T13:22:55;13.30;54.40
20498;DHT22;10407;53.238;10.448;2023-04-25T13:25:23;12.90;54.60
20498;DHT22;10407;53.238;10.448;2023-04-25T13:27:51;12.70;57.10
20498;DHT22;10407;53.238;10.448;2023-04-25T13:30:19;12.60;56.90
20498;DHT22;10407;53.238;10.448;2023-04-25T13:32:46;12.30;57.70
20498;DHT22;10407;53.238;10.448;2023-04-25T13:35:14;12.20;58.90
20498;DHT22;10407;53.238;10.448;2023-04-25T13:37:41;12.60;59.40
20498;DHT22;10407;53.238;10.448;2023-04-25T13:40:10;12.70;52.00
20498;DHT22;10407;53.238;10.448;2023-04-25T13:42:39;12.70;50.10
20498;DHT22;10407;53.238;10.448;2023-04-25T13:45:07;12.90;45.10
20498;DHT22;10407;53.238;10.448;2023-04-25T13:47:35;13.30;43.60
20498;DHT22;10407;53.238;10.448;2023-04-25T13:50:03;13.40;40.80
20498;DHT22;10407;53.238;10.448;2023-04-25T13:52:32;13.30;42.50
20498;DHT22;10407;53.238;10.448;2023-04-25T13:54:59;13.10;41.50
20498;DHT22;10407;53.238;10.448;2023-04-25T13:57:30;13.10;41.70
20498;DHT22;10407;53.238;10.448;2023-04-25T13:59:58;13.30;42.10
20498;DHT22;10407;53.238;10.448;2023-04-25T14:02:26;13.40;41.00
20498;DHT22;10407;53.238;10.448;2023-04-25T14:04:53;13.20;39.60
20498;DHT22;10407;53.238;10.448;2023-04-25T14:07:21;13.20;39.10
20498;DHT22;10407;53.238;10.448;2023-04-25T14:09:48;13.30;39.80
20498;DHT22;10407;53.238;10.448;2023-04-25T14:12:16;13.40;40.50
20498;DHT22;10407;53.238;10.448;2023-04-25T14:14:44;13.50;42.70
20498;DHT22;10407;53.238;10.448;2023-04-25T14:17:12;13.30;41.20
20498;DHT22;10407;53.238;10.448;2023-04-25T14:19:40;13.20;42.60
20498;DHT22;10407;53.238;10.448;2023-04-25T14:22:09;13.00;43.00
20498;DHT22;10407;53.238;10.448;2023-04-25T14:24:37;12.80;42.80
20498;DHT22;10407;53.238;10.448;2023-04-25T14:27:05;12.80;43.70
20498;DHT22;10407;53.238;10.448;2023-04-25T14:29:32;12.70;43.70
20498;DHT22;10407;53.238;10.448;2023-04-25T14:32:00;12.10;54.50
20498;DHT22;10407;53.238;10.448;2023-04-25T14:34:28;12.00;60.60
20498;DHT22;10407;53.238;10.448;2023-04-25T14:36:56;12.00;75.20
20498;DHT22;10407;53.238;10.448;2023-04-25T14:39:24;11.90;86.40
20498;DHT22;10407;53.238;10.448;2023-04-25T14:41:51;11.90;86.40
20498;DHT22;10407;53.238;10.448;2023-04-25T14:44:19;12.10;86.20
20498;DHT22;10407;53.238;10.448;2023-04-25T14:46:46;12.70;85.40
20498;DHT22;10407;53.238;10.448;2023-04-25T14:49:14;12.70;85.70
20498;DHT22;10407;53.238;10.448;2023-04-25T14:51:41;12.40;82.60
20498;DHT22;10407;53.238;10.448;2023-04-25T14:54:09;12.50;82.00
20498;DHT22;10407;53.238;10.448;2023-04-25T14:56:38;12.50;80.60
20498;DHT22;10407;53.238;10.448;2023-04-25T14:59:06;12.10;68.30
20498;DHT22;10407;53.238;10.448;2023-04-25T15:01:34;11.90;81.10
20498;DHT22;10407;53.238;10.448;2023-04-25T15:04:01;11.70;78.60
20498;DHT22;10407;53.238;10.448;2023-04-25T15:06:29;12.10;75.50
20498;DHT22;10407;53.238;10.448;2023-04-25T15:08:57;12.10;68.70
20498;DHT22;10407;53.238;10.448;2023-04-25T15:11:25;12.00;68.70
20498;DHT22;10407;53.238;10.448;2023-04-25T15:13:52;12.40;67.00
20498;DHT22;10407;53.238;10.448;2023-04-25T15:16:20;12.30;64.90
20498;DHT22;10407;53.238;10.448;2023-04-25T15:18:47;11.90;63.10
20498;DHT22;10407;53.238;10.448;2023-04-25T15:21:15;12.10;67.50
20498;DHT22;10407;53.238;10.448;2023-04-25T15:23:42;12.40;66.60
20498;DHT22;10407;53.238;10.448;2023-04-25T15:26:10;12.60;64.50